Time;durP1;ratioP1;P1;durP2;ratioP2;P2;SDS_P1;SDS_P2;PMS_P1;PMS_P2;Temp;Humidity;BMP_temperature;BMP_pressure;BME280_temperature;BME280_humidity;BME280_pressure;Samples;Min_cycle;Max_cycle;Signal;HPM_P1;HPM_P2
2021/04/30 00:01:15;;;;;;;4.78;4.07;;;;;;;9.13;91.71;95212.66;5036884;28;20544;-57
2021/04/30 00:03:41;;;;;;;7.45;4.20;;;;;;;9.14;91.74;95205.59;5037986;28;20083;-56
2021/04/30 00:06:07;;;;;;;3.60;3.33;;;;;;;9.11;91.55;95198.03;5034885;28;20040;-55
2021/04/30 00:08:32;;;;;;;6.65;2.80;;;;;;;9.07;91.74;95197.47;5038077;28;20096;-57
2021/04/30 00:10:58;;;;;;;4.50;2.55;;;;;;;9.06;91.80;95185.31;5037524;28;20048;-57
2021/04/30 00:13:24;;;;;;;4.15;3.08;;;;;;;9.03;91.49;95189.06;5037933;28;20069;-56
2021/04/30 00:15:50;;;;;;;5.90;3.13;;;;;;;9.00;91.61;95181.47;5037094;28;20029;-57
2021/04/30 00:18:16;;;;;;;2.58;2.38;;;;;;;8.97;91.64;95170.44;5028545;28;20022;-56
2021/04/30 00:20:51;;;;;;;2.70;2.55;;;;;;;8.99;91.62;95179.81;5030227;28;20493;-57
2021/04/30 00:23:17;;;;;;;3.85;2.78;;;;;;;9.00;91.76;95170.97;5032878;28;20112;-57
2021/04/30 00:25:44;;;;;;;3.05;2.70;;;;;;;8.97;92.46;95178.31;5035831;28;20052;-56
2021/04/30 00:28:09;;;;;;;4.88;2.70;;;;;;;8.96;92.73;95168.78;5030905;28;20033;-57
2021/04/30 00:30:35;;;;;;;7.05;2.90;;;;;;;8.91;93.30;95171.00;5036935;28;20017;-56
2021/04/30 00:33:01;;;;;;;2.78;2.58;;;;;;;8.92;93.07;95168.25;5040907;28;20028;-58
2021/04/30 00:35:27;;;;;;;3.28;2.80;;;;;;;8.95;92.69;95167.94;5020389;28;20469;-58
2021/04/30 00:37:53;;;;;;;3.72;2.58;;;;;;;8.94;92.92;95160.22;5020219;28;20022;-57
2021/04/30 00:40:18;;;;;;;2.42;2.33;;;;;;;8.97;92.52;95163.38;5024629;28;20017;-58
2021/04/30 00:42:44;;;;;;;2.50;2.40;;;;;;;8.93;92.72;95164.66;5021928;28;20029;-57
2021/04/30 00:45:15;;;;;;;2.80;2.47;;;;;;;8.96;92.32;95166.16;5026932;28;20029;-57
2021/04/30 00:47:41;;;;;;;2.28;2.17;;;;;;;8.95;91.90;95162.69;5023045;28;20394;-57
2021/04/30 00:50:09;;;;;;;3.03;2.40;;;;;;;9.06;91.39;95161.69;5011120;28;20141;-57
2021/04/30 00:52:38;;;;;;;3.13;2.22;;;;;;;8.97;91.94;95165.19;5006440;28;20438;-57
2021/04/30 00:55:09;;;;;;;2.33;2.20;;;;;;;8.95;92.34;95164.50;5020713;28;20018;-57
2021/04/30 00:57:54;;;;;;;2.20;2.00;;;;;;;8.99;91.75;95160.63;5021004;28;20026;-57
2021/04/30 01:00:22;;;;;;;2.40;2.20;;;;;;;9.30;89.91;95166.41;5019828;28;20079;-57
2021/04/30 01:02:47;;;;;;;3.33;2.40;;;;;;;9.15;90.42;95162.63;5025638;28;20017;-56
2021/04/30 01:05:14;;;;;;;4.30;2.45;;;;;;;9.11;90.96;95162.06;5033384;28;20033;-56
2021/04/30 01:07:39;;;;;;;2.63;2.42;;;;;;;9.08;91.61;95162.38;5032082;28;20446;-56
2021/04/30 01:10:06;;;;;;;2.50;1.80;;;;;;;9.06;91.34;95163.47;5029228;28;20029;-57
2021/04/30 01:12:32;;;;;;;1.95;1.85;;;;;;;9.05;91.77;95167.06;5027756;28;20060;-57
2021/04/30 01:14:59;;;;;;;2.22;1.85;;;;;;;9.03;92.08;95168.03;5024320;28;20379;-58
2021/04/30 01:17:24;;;;;;;1.92;1.80;;;;;;;9.03;91.99;95169.84;5011159;28;20018;-57
2021/04/30 01:19:50;;;;;;;1.80;1.70;;;;;;;9.03;91.35;95156.72;5016579;28;20056;-57
2021/04/30 01:22:34;;;;;;;2.83;2.30;;;;;;;9.02;91.18;95157.69;5018430;28;20140;-56
2021/04/30 01:24:59;;;;;;;3.17;2.40;;;;;;;9.21;90.86;95156.78;5009936;28;20058;-56
2021/04/30 01:27:25;;;;;;;2.83;2.50;;;;;;;9.17;90.65;95156.25;5021153;28;20036;-56
2021/04/30 01:29:50;;;;;;;2.85;2.10;;;;;;;9.17;90.73;95161.50;5019203;28;20359;-56
2021/04/30 01:32:16;;;;;;;7.10;3.53;;;;;;;9.09;91.10;95148.25;5023792;28;20021;-56
2021/04/30 01:34:42;;;;;;;10.10;4.97;;;;;;;9.19;90.67;95144.78;5021349;28;20072;-56
2021/04/30 01:37:08;;;;;;;7.10;3.33;;;;;;;9.18;90.52;95143.94;5021854;28;20014;-57
2021/04/30 01:39:33;;;;;;;2.60;2.40;;;;;;;9.04;90.80;95142.63;5026104;28;20486;-56
2021/04/30 01:41:59;;;;;;;7.20;2.03;;;;;;;8.88;91.46;95145.88;5025823;28;20040;-56
2021/04/30 01:44:25;;;;;;;2.60;2.40;;;;;;;8.75;91.97;95146.22;5024154;28;20060;-56
2021/04/30 01:46:50;;;;;;;2.00;1.80;;;;;;;8.74;92.12;95150.63;5022261;28;20018;-57
2021/04/30 01:49:17;;;;;;;7.22;2.10;;;;;;;8.76;92.36;95155.75;5033929;28;20028;-57
2021/04/30 01:51:42;;;;;;;2.30;1.85;;;;;;;8.79;92.77;95147.56;5015803;28;20014;-57
2021/04/30 01:54:08;;;;;;;4.55;3.13;;;;;;;8.78;92.71;95151.16;5015742;28;20018;-56
2021/04/30 01:56:33;;;;;;;3.55;3.03;;;;;;;8.81;92.54;95144.78;5010925;28;20554;-57
2021/04/30 01:58:59;;;;;;;3.05;2.85;;;;;;;8.83;92.50;95154.19;5005436;28;20019;-56
2021/04/30 02:01:25;;;;;;;4.72;3.20;;;;;;;8.84;92.69;95160.25;5023159;28;20112;-56
2021/04/30 02:03:50;;;;;;;2.92;2.70;;;;;;;8.84;92.53;95155.84;5019502;28;20025;-56
2021/04/30 02:06:16;;;;;;;4.93;2.55;;;;;;;8.87;92.11;95166.03;5028104;28;20025;-56
2021/04/30 02:08:41;;;;;;;2.28;2.17;;;;;;;9.11;91.21;95154.19;5027136;28;20029;-56
2021/04/30 02:11:07;;;;;;;2.50;2.30;;;;;;;9.16;90.38;95159.00;5027934;28;20049;-58
2021/04/30 02:13:33;;;;;;;2.88;2.53;;;;;;;9.04;90.95;95158.38;5030146;28;20033;-56
2021/04/30 02:15:59;;;;;;;3.55;2.78;;;;;;;8.92;91.28;95157.75;5013620;28;20510;-56
2021/04/30 02:18:25;;;;;;;3.05;2.75;;;;;;;8.84;91.41;95145.34;5009518;28;20042;-56
2021/04/30 02:20:51;;;;;;;4.05;2.67;;;;;;;8.78;92.00;95153.78;5017944;28;20097;-56
2021/04/30 02:23:18;;;;;;;4.22;2.78;;;;;;;8.75;91.79;95154.09;5020162;28;20120;-55
2021/04/30 02:25:44;;;;;;;5.93;2.53;;;;;;;8.74;91.94;95161.13;5009061;28;20018;-56
2021/04/30 02:28:10;;;;;;;3.00;2.55;;;;;;;8.82;91.86;95159.56;5024098;28;20037;-57
2021/04/30 02:30:38;;;;;;;6.97;2.97;;;;;;;8.81;92.41;95150.88;5015951;28;20022;-56
2021/04/30 02:33:05;;;;;;;7.85;2.88;;;;;;;8.76;92.76;95152.28;5017055;28;20040;-56
2021/04/30 02:35:37;;;;;;;4.60;2.95;;;;;;;8.79;92.18;95142.31;5018397;28;20042;-56
2021/04/30 02:38:04;;;;;;;3.25;2.95;;;;;;;8.72;92.46;95143.84;5019532;28;20470;-56
2021/04/30 02:40:32;;;;;;;3.55;3.08;;;;;;;8.67;92.88;95148.72;5020714;28;20021;-56
2021/04/30 02:43:04;;;;;;;5.03;3.08;;;;;;;8.66;92.80;95140.03;5012655;28;20037;-56
2021/04/30 02:45:30;;;;;;;3.65;3.10;;;;;;;8.66;92.49;95141.81;5015746;28;20493;-56
2021/04/30 02:47:58;;;;;;;5.72;3.03;;;;;;;8.64;92.26;95128.00;5023207;28;20561;-55
2021/04/30 02:50:29;;;;;;;3.85;3.47;;;;;;;8.62;92.28;95132.56;5028070;28;20106;-55
2021/04/30 02:52:55;;;;;;;11.77;3.25;;;;;;;8.62;92.15;95124.72;5018140;28;20544;-57
2021/04/30 02:55:23;;;;;;;4.78;3.30;;;;;;;8.53;92.84;95121.13;5030859;28;20025;-55
2021/04/30 02:57:54;;;;;;;5.93;3.95;;;;;;;8.46;92.92;95126.09;5034819;28;20026;-54
2021/04/30 03:00:21;;;;;;;3.53;3.25;;;;;;;8.40;93.23;95124.91;5038118;28;20107;-57
2021/04/30 03:02:46;;;;;;;3.88;3.58;;;;;;;8.40;92.70;95122.28;5023898;28;20552;-55
2021/04/30 03:05:13;;;;;;;7.50;3.33;;;;;;;8.35;93.24;95121.84;5020298;28;20073;-58
2021/04/30 03:07:38;;;;;;;3.10;2.90;;;;;;;8.29;93.12;95119.81;5024297;28;20021;-58
2021/04/30 03:10:06;;;;;;;4.28;3.45;;;;;;;8.28;92.80;95121.59;5022815;28;20049;-58
2021/04/30 03:12:32;;;;;;;3.92;3.60;;;;;;;8.24;93.35;95111.53;5026592;28;20064;-58
2021/04/30 03:14:57;;;;;;;4.95;3.38;;;;;;;8.20;93.47;95116.22;5025567;28;20029;-57
2021/04/30 03:17:23;;;;;;;4.55;3.25;;;;;;;8.20;93.70;95110.97;5018817;28;20021;-58
2021/04/30 03:19:48;;;;;;;3.35;3.05;;;;;;;8.23;93.41;95109.88;5027938;28;20037;-57
2021/04/30 03:22:14;;;;;;;3.42;2.83;;;;;;;8.27;93.26;95106.81;5006801;28;20079;-58
2021/04/30 03:24:39;;;;;;;3.30;3.00;;;;;;;8.28;93.12;95099.78;5033803;28;20112;-58
2021/04/30 03:27:05;;;;;;;6.25;3.08;;;;;;;8.36;92.59;95096.47;5004319;28;20071;-58
2021/04/30 03:29:31;;;;;;;3.65;3.33;;;;;;;8.30;93.15;95095.22;5027915;28;20037;-58
2021/04/30 03:31:56;;;;;;;3.60;2.80;;;;;;;8.47;92.17;95096.28;5035274;28;20026;-58
2021/04/30 03:34:22;;;;;;;2.65;2.47;;;;;;;8.46;91.96;95102.50;5026782;28;20048;-58
2021/04/30 03:36:47;;;;;;;3.88;3.25;;;;;;;8.30;92.36;95090.81;5037956;28;20052;-57
2021/04/30 03:39:13;;;;;;;2.70;2.50;;;;;;;8.22;92.56;95084.63;5038198;28;20025;-58
2021/04/30 03:41:39;;;;;;;3.63;2.03;;;;;;;8.17;92.57;95091.09;5037933;28;20060;-57
2021/04/30 03:44:04;;;;;;;2.60;2.20;;;;;;;8.10;92.68;95087.41;5037314;28;20018;-58
2021/04/30 03:46:30;;;;;;;14.95;5.72;;;;;;;8.09;93.20;95096.25;5039172;28;20029;-58
2021/04/30 03:48:56;;;;;;;8.88;2.47;;;;;;;8.14;92.67;95096.63;5041298;28;21766;-58
2021/04/30 03:51:21;;;;;;;2.50;2.40;;;;;;;8.14;93.40;95104.50;5044438;28;20485;-58
2021/04/30 03:53:47;;;;;;;6.95;2.70;;;;;;;8.15;93.73;95113.22;5029848;28;20048;-59
2021/04/30 03:56:13;;;;;;;5.82;3.17;;;;;;;8.12;94.07;95116.94;5019297;28;20049;-58
2021/04/30 03:58:38;;;;;;;3.50;3.30;;;;;;;8.16;93.87;95115.66;5036555;28;20397;-58
2021/04/30 04:01:06;;;;;;;5.20;3.00;;;;;;;8.18;93.53;95110.31;5039436;28;20029;-58
2021/04/30 04:03:32;;;;;;;4.30;3.50;;;;;;;8.21;93.91;95104.78;5040271;28;20076;-56
2021/04/30 04:05:58;;;;;;;5.55;2.92;;;;;;;8.22;93.59;95109.03;5040250;28;20040;-58
2021/04/30 04:08:24;;;;;;;5.65;3.22;;;;;;;8.25;93.71;95100.88;5037384;28;20049;-58
2021/04/30 04:10:49;;;;;;;4.95;3.78;;;;;;;8.26;93.58;95096.47;5028114;28;20053;-57
2021/04/30 04:13:20;;;;;;;3.60;3.30;;;;;;;8.29;93.40;95098.81;5024921;28;20021;-58
2021/04/30 04:15:47;;;;;;;4.93;3.92;;;;;;;8.30;93.56;95103.94;5033494;28;20029;-58
2021/04/30 04:18:14;;;;;;;5.53;4.20;;;;;;;8.31;93.72;95102.97;5036982;28;20808;-58
2021/04/30 04:20:40;;;;;;;6.63;3.47;;;;;;;8.32;93.67;95102.00;5034144;28;20040;-58
2021/04/30 04:23:06;;;;;;;3.90;3.20;;;;;;;8.40;93.08;95098.66;5031434;28;20030;-58
2021/04/30 04:25:32;;;;;;;4.57;3.45;;;;;;;8.39;93.34;95104.03;5034196;28;20079;-58
2021/04/30 04:27:58;;;;;;;3.50;2.53;;;;;;;8.37;93.35;95098.13;5038406;28;20025;-58
2021/04/30 04:30:25;;;;;;;4.60;2.35;;;;;;;8.32;92.91;95091.50;5038991;28;20018;-58
2021/04/30 04:32:51;;;;;;;2.30;2.20;;;;;;;8.36;92.85;95088.59;5036732;28;20056;-57
2021/04/30 04:35:17;;;;;;;12.07;2.78;;;;;;;8.39;92.75;95077.81;5052171;28;20517;-58
2021/04/30 04:37:43;;;;;;;4.05;2.60;;;;;;;8.43;92.97;95079.16;5055038;28;20021;-58
2021/04/30 04:40:10;;;;;;;3.45;2.40;;;;;;;8.32;93.35;95081.00;5050906;28;20076;-58
2021/04/30 04:42:35;;;;;;;4.65;2.70;;;;;;;8.30;93.72;95069.84;5046161;28;20025;-58
2021/04/30 04:45:01;;;;;;;4.72;2.95;;;;;;;8.30;93.63;95077.72;5036766;28;20024;-57
2021/04/30 04:47:26;;;;;;;2.90;2.70;;;;;;;8.31;93.47;95075.91;5040507;28;20040;-59
2021/04/30 04:49:52;;;;;;;3.25;3.05;;;;;;;8.34;93.51;95064.31;5036124;28;20110;-59
2021/04/30 04:52:17;;;;;;;5.30;2.55;;;;;;;8.32;93.54;95059.19;5034092;28;20029;-57
2021/04/30 04:54:43;;;;;;;2.88;2.30;;;;;;;8.32;93.54;95067.91;5035721;28;20022;-58
2021/04/30 04:57:08;;;;;;;4.50;2.20;;;;;;;8.44;92.86;95075.56;5036597;28;20037;-59
2021/04/30 04:59:34;;;;;;;2.90;2.40;;;;;;;8.44;93.08;95076.41;5038084;28;20443;-58
2021/04/30 05:01:59;;;;;;;3.88;2.42;;;;;;;8.48;93.28;95070.88;5036287;28;20017;-56
2021/04/30 05:04:25;;;;;;;4.97;2.65;;;;;;;8.57;92.68;95076.13;5036308;28;20025;-57
2021/04/30 05:06:51;;;;;;;3.28;2.97;;;;;;;8.68;92.40;95077.72;5036435;28;20014;-57
2021/04/30 05:09:16;;;;;;;5.07;3.28;;;;;;;8.73;91.73;95080.72;5036246;28;20040;-57
2021/04/30 05:11:42;;;;;;;5.47;2.90;;;;;;;8.79;91.95;95079.34;5018337;28;20017;-57
2021/04/30 05:14:08;;;;;;;3.35;3.05;;;;;;;8.84;92.18;95081.50;5040764;28;20826;-57
2021/04/30 05:16:33;;;;;;;3.63;3.20;;;;;;;8.89;91.28;95080.09;5038372;28;20493;-56
2021/04/30 05:18:59;;;;;;;4.90;3.17;;;;;;;9.00;91.18;95070.38;5030641;28;20025;-58
2021/04/30 05:21:24;;;;;;;10.13;2.80;;;;;;;9.10;90.86;95068.50;5035926;28;20036;-58
2021/04/30 05:23:50;;;;;;;5.85;2.83;;;;;;;9.19;90.34;95071.25;5035755;28;20060;-58
2021/04/30 05:26:16;;;;;;;2.22;2.13;;;;;;;9.30;89.62;95063.13;5029101;28;20032;-58
2021/04/30 05:28:41;;;;;;;3.85;2.65;;;;;;;9.35;89.36;95071.38;5039851;28;20021;-56
2021/04/30 05:31:07;;;;;;;5.88;2.92;;;;;;;9.44;89.14;95064.41;5035306;28;20018;-58
2021/04/30 05:33:32;;;;;;;6.00;3.92;;;;;;;9.49;88.76;95071.84;5028345;28;20056;-57
2021/04/30 05:35:58;;;;;;;5.68;3.03;;;;;;;9.48;88.19;95067.56;5013573;28;20028;-57
2021/04/30 05:38:23;;;;;;;3.13;2.88;;;;;;;9.34;88.75;95067.09;5019702;28;20033;-57
2021/04/30 05:40:49;;;;;;;4.07;3.67;;;;;;;9.17;89.54;95077.47;5016117;28;20023;-56
2021/04/30 05:43:15;;;;;;;5.13;3.40;;;;;;;9.10;89.90;95076.38;5006237;28;20029;-57
2021/04/30 05:45:43;;;;;;;7.05;3.60;;;;;;;9.28;88.87;95078.22;5024291;28;20021;-55
2021/04/30 05:48:09;;;;;;;4.35;3.42;;;;;;;9.23;89.39;95073.41;5007186;28;20037;-59
2021/04/30 05:50:35;;;;;;;4.18;3.60;;;;;;;9.26;89.37;95072.28;5034404;28;20032;-58
2021/04/30 05:53:01;;;;;;;5.53;3.50;;;;;;;9.38;88.85;95070.25;5021486;28;20032;-58
2021/04/30 05:55:27;;;;;;;5.43;4.35;;;;;;;9.52;88.27;95064.50;5004238;28;20026;-50
2021/04/30 05:57:53;;;;;;;4.85;3.70;;;;;;;9.56;88.10;95071.09;5009141;28;20030;-52
2021/04/30 06:00:19;;;;;;;3.92;3.65;;;;;;;9.81;87.69;95073.06;5013231;28;20026;-58
2021/04/30 06:02:46;;;;;;;3.67;3.00;;;;;;;9.82;87.65;95069.47;5011701;28;20026;-57
2021/04/30 06:05:11;;;;;;;4.80;3.08;;;;;;;9.85;87.46;95069.19;5015537;28;20029;-55
2021/04/30 06:07:37;;;;;;;5.45;3.53;;;;;;;9.78;87.06;95070.75;5016454;28;20024;-57
2021/04/30 06:10:04;;;;;;;4.43;3.35;;;;;;;9.65;87.81;95064.09;5015648;28;20436;-56
2021/04/30 06:12:30;;;;;;;3.97;3.05;;;;;;;9.85;87.52;95069.19;5017247;28;20554;-54
2021/04/30 06:14:56;;;;;;;6.47;3.50;;;;;;;9.83;86.93;95066.72;5019132;28;20591;-51
2021/04/30 06:17:21;;;;;;;4.15;3.85;;;;;;;9.85;86.82;95063.94;5014982;28;20025;-54
2021/04/30 06:19:48;;;;;;;9.70;3.45;;;;;;;9.90;85.69;95061.66;5020468;28;20026;-55
2021/04/30 06:22:14;;;;;;;4.80;3.25;;;;;;;9.70;86.32;95059.22;5024321;28;20033;-56
2021/04/30 06:24:40;;;;;;;4.05;3.22;;;;;;;9.58;86.21;95060.41;5027782;28;20033;-54
2021/04/30 06:27:06;;;;;;;6.38;3.45;;;;;;;9.58;86.24;95063.03;5019272;28;20022;-52
2021/04/30 06:29:31;;;;;;;2.85;2.60;;;;;;;9.57;86.65;95054.34;5018034;28;20026;-56
2021/04/30 06:31:57;;;;;;;6.30;2.50;;;;;;;9.86;85.60;95060.31;5018265;28;20053;-55
2021/04/30 06:34:26;;;;;;;4.30;2.78;;;;;;;9.94;85.13;95054.28;5014637;28;20421;-57
2021/04/30 06:36:54;;;;;;;2.97;2.55;;;;;;;9.99;84.53;95059.94;5031703;28;20024;-55
2021/04/30 06:39:23;;;;;;;4.05;2.50;;;;;;;9.94;84.64;95055.13;5034798;28;20087;-53
2021/04/30 06:41:50;;;;;;;4.00;3.20;;;;;;;10.01;84.36;95050.06;5030791;28;20017;-55
2021/04/30 06:44:16;;;;;;;6.43;4.30;;;;;;;10.04;83.82;95049.75;5017726;28;20052;-51
2021/04/30 06:46:42;;;;;;;4.78;3.10;;;;;;;10.03;84.75;95051.56;5027422;28;20030;-53
2021/04/30 06:49:07;;;;;;;2.38;2.20;;;;;;;10.06;84.28;95058.31;5035314;28;20025;-55
2021/04/30 06:51:34;;;;;;;2.72;2.30;;;;;;;9.99;84.39;95063.38;5035564;28;20018;-52
2021/04/30 06:54:03;;;;;;;3.13;2.40;;;;;;;10.01;83.96;95056.13;5035439;28;20027;-56
2021/04/30 06:56:29;;;;;;;3.78;1.90;;;;;;;10.00;82.72;95062.38;5035163;28;20026;-55
2021/04/30 06:58:55;;;;;;;4.90;1.98;;;;;;;10.01;83.52;95066.66;5032684;28;20825;-56
2021/04/30 07:01:21;;;;;;;2.78;2.30;;;;;;;10.03;83.43;95072.59;5028480;28;20026;-50
2021/04/30 07:03:47;;;;;;;4.20;2.97;;;;;;;10.14;82.63;95073.34;5031902;28;20100;-53
2021/04/30 07:06:15;;;;;;;2.97;2.78;;;;;;;10.16;82.96;95079.25;5038723;28;20060;-53
2021/04/30 07:08:41;;;;;;;3.55;3.33;;;;;;;10.09;83.66;95073.78;5034609;28;20056;-50
2021/04/30 07:11:08;;;;;;;3.78;3.20;;;;;;;10.20;84.91;95071.91;5036667;28;20021;-51
2021/04/30 07:13:35;;;;;;;4.03;2.70;;;;;;;10.30;84.93;95085.75;5030496;28;20168;-52
2021/04/30 07:16:05;;;;;;;7.65;2.53;;;;;;;10.31;84.04;95084.78;5039971;28;20060;-54
2021/04/30 07:18:30;;;;;;;6.55;2.25;;;;;;;10.36;84.92;95087.75;5034868;28;20029;-55
2021/04/30 07:20:56;;;;;;;3.67;2.63;;;;;;;10.51;83.39;95087.22;5035251;28;20029;-57
2021/04/30 07:23:22;;;;;;;4.55;2.95;;;;;;;10.55;83.96;95085.94;5035369;28;20022;-55
2021/04/30 07:25:48;;;;;;;3.97;3.47;;;;;;;10.64;83.69;95085.00;5034975;28;20096;-52
2021/04/30 07:28:14;;;;;;;6.63;3.60;;;;;;;10.71;83.56;95086.00;5036076;28;20035;-55
2021/04/30 07:30:39;;;;;;;3.67;3.10;;;;;;;10.78;83.00;95094.13;5023860;28;20144;-51
2021/04/30 07:33:05;;;;;;;8.15;2.78;;;;;;;10.70;82.70;95104.59;5026818;28;20025;-52
2021/04/30 07:35:30;;;;;;;3.58;2.85;;;;;;;10.93;80.37;95104.03;5019653;28;20054;-58
2021/04/30 07:37:56;;;;;;;4.30;3.60;;;;;;;10.71;81.88;95104.44;5021991;28;20069;-55
2021/04/30 07:40:22;;;;;;;4.13;3.33;;;;;;;10.69;83.01;95095.03;5022416;28;20574;-56
2021/04/30 07:42:48;;;;;;;6.13;3.42;;;;;;;10.72;82.67;95106.09;5024550;28;20509;-55
2021/04/30 07:45:14;;;;;;;4.30;3.55;;;;;;;10.70;83.05;95105.44;5007102;28;20025;-56
2021/04/30 07:47:39;;;;;;;8.63;3.70;;;;;;;10.69;83.41;95113.47;5021744;28;20022;-53
2021/04/30 07:50:06;;;;;;;4.70;3.92;;;;;;;10.68;83.57;95106.56;5025044;28;20049;-54
2021/04/30 07:52:32;;;;;;;5.50;4.15;;;;;;;10.74;83.81;95112.03;5035030;28;20071;-56
2021/04/30 07:55:01;;;;;;;4.95;3.63;;;;;;;10.78;84.00;95111.69;5034648;28;20029;-55
2021/04/30 07:57:31;;;;;;;5.07;4.57;;;;;;;10.66;84.38;95113.78;5037654;28;20037;-55
2021/04/30 07:59:57;;;;;;;4.25;3.95;;;;;;;10.54;84.33;95121.97;5021809;28;20544;-52
2021/04/30 08:02:23;;;;;;;4.43;4.13;;;;;;;10.47;84.84;95128.81;5024880;28;20100;-50
2021/04/30 08:04:48;;;;;;;9.57;8.77;;;;;;;10.34;85.63;95126.56;5032405;28;20076;-53
2021/04/30 08:07:14;;;;;;;9.48;8.57;;;;;;;11.07;81.90;95124.50;5023829;28;20029;-54
2021/04/30 08:09:41;;;;;;;10.00;8.75;;;;;;;10.97;82.65;95124.63;5022377;28;20034;-56
2021/04/30 08:12:07;;;;;;;11.45;8.65;;;;;;;10.70;84.86;95125.66;5022045;28;20501;-54
2021/04/30 08:14:33;;;;;;;9.50;7.45;;;;;;;10.88;83.38;95129.03;5024972;28;20064;-55
2021/04/30 08:16:59;;;;;;;9.70;7.88;;;;;;;10.84;84.38;95132.97;5024063;28;20025;-55
2021/04/30 08:19:26;;;;;;;10.38;7.55;;;;;;;10.91;84.93;95127.06;5027584;28;20049;-53
2021/04/30 08:21:52;;;;;;;11.27;8.52;;;;;;;11.09;84.83;95143.59;5029385;28;20022;-54
2021/04/30 08:24:20;;;;;;;8.55;7.82;;;;;;;10.88;84.64;95133.50;5024647;28;20024;-55
2021/04/30 08:26:46;;;;;;;8.52;7.63;;;;;;;10.93;85.23;95138.25;5028110;28;20030;-55
2021/04/30 08:29:12;;;;;;;9.48;7.80;;;;;;;11.02;85.41;95145.22;5037072;28;20029;-53
2021/04/30 08:31:38;;;;;;;10.00;7.82;;;;;;;10.96;84.98;95145.88;5035446;28;20021;-54
2021/04/30 08:34:03;;;;;;;8.23;7.43;;;;;;;10.93;85.04;95141.75;5034052;28;20072;-52
2021/04/30 08:36:30;;;;;;;8.43;7.57;;;;;;;11.20;84.00;95142.50;5035456;28;20025;-53
2021/04/30 08:38:56;;;;;;;8.63;7.70;;;;;;;11.43;83.37;95140.13;5030888;28;20036;-51
2021/04/30 08:41:25;;;;;;;7.72;6.95;;;;;;;11.65;81.64;95131.75;5032230;28;20068;-55
2021/04/30 08:43:52;;;;;;;8.82;6.07;;;;;;;12.03;79.18;95140.88;5034614;28;20029;-54
2021/04/30 08:46:17;;;;;;;6.68;6.00;;;;;;;11.65;81.71;95135.22;5028174;28;20079;-54
2021/04/30 08:48:44;;;;;;;6.63;5.95;;;;;;;11.83;81.25;95134.25;5032746;28;20029;-53
2021/04/30 08:51:10;;;;;;;11.65;6.45;;;;;;;11.88;81.03;95134.59;5024657;28;20029;-52
2021/04/30 08:53:39;;;;;;;7.65;5.97;;;;;;;11.79;80.41;95146.94;5021147;28;20053;-54
2021/04/30 08:56:05;;;;;;;6.53;5.60;;;;;;;11.85;78.92;95151.56;5019102;28;20021;-56
2021/04/30 08:58:37;;;;;;;7.18;6.53;;;;;;;11.61;80.71;95158.44;5014405;28;20032;-56
2021/04/30 09:01:05;;;;;;;9.30;6.85;;;;;;;11.52;82.06;95161.22;5024366;28;20037;-55
2021/04/30 09:03:34;;;;;;;7.13;6.43;;;;;;;11.62;82.18;95172.47;5024746;28;20029;-55
2021/04/30 09:06:00;;;;;;;7.05;6.35;;;;;;;11.42;83.19;95172.72;5023561;28;20033;-54
2021/04/30 09:08:27;;;;;;;6.50;5.88;;;;;;;11.44;83.14;95176.03;5019894;28;20026;-55
2021/04/30 09:10:55;;;;;;;6.90;6.05;;;;;;;11.36;82.54;95173.34;5024469;28;20029;-55
2021/04/30 09:13:22;;;;;;;6.07;5.57;;;;;;;11.28;82.18;95178.59;5030910;28;20375;-55
2021/04/30 09:16:02;;;;;;;5.47;5.10;;;;;;;11.30;82.58;95193.28;5033032;28;20033;-56
2021/04/30 09:18:32;;;;;;;5.53;4.97;;;;;;;11.14;83.21;95194.00;5014233;28;20115;-56
2021/04/30 09:21:09;;;;;;;4.95;4.65;;;;;;;11.12;82.67;95195.16;5031085;28;20037;-54
2021/04/30 09:23:41;;;;;;;6.22;5.03;;;;;;;11.21;82.30;95196.84;5019038;28;20026;-55
2021/04/30 09:26:24;;;;;;;5.53;4.30;;;;;;;11.14;81.88;95196.66;5021929;28;20120;-54
2021/04/30 09:29:08;;;;;;;5.80;3.45;;;;;;;11.01;80.63;95196.28;5034360;28;20130;-55
2021/04/30 09:31:39;;;;;;;4.60;4.18;;;;;;;11.12;80.55;95195.97;5034408;28;20029;-54
2021/04/30 09:34:21;;;;;;;4.93;3.03;;;;;;;11.11;79.53;95202.22;5026143;28;20056;-54
2021/04/30 09:37:12;;;;;;;4.78;4.35;;;;;;;11.06;79.06;95204.50;5011432;28;20561;-56
2021/04/30 09:39:51;;;;;;;4.97;2.55;;;;;;;10.87;78.34;95200.31;4997835;28;20065;-56
2021/04/30 09:42:18;;;;;;;7.47;3.53;;;;;;;10.70;78.83;95204.63;5005863;28;20046;-52
2021/04/30 09:44:46;;;;;;;6.50;4.90;;;;;;;10.81;77.73;95204.38;5004954;28;20057;-53
2021/04/30 09:47:29;;;;;;;4.03;3.53;;;;;;;10.74;77.63;95204.16;5016061;28;20401;-51
2021/04/30 09:49:57;;;;;;;2.10;2.00;;;;;;;10.60;78.43;95208.19;5026405;28;20024;-54
2021/04/30 09:52:25;;;;;;;4.55;1.50;;;;;;;10.70;78.39;95202.00;5016820;28;20029;-56
2021/04/30 09:54:52;;;;;;;3.35;1.60;;;;;;;10.57;79.38;95205.88;5010410;28;20083;-52
2021/04/30 09:57:21;;;;;;;1.83;1.70;;;;;;;10.60;79.47;95210.00;5001686;28;20033;-51
2021/04/30 10:00:10;;;;;;;4.55;4.10;;;;;;;10.51;79.63;95208.28;5014143;28;20057;-52
2021/04/30 10:02:37;;;;;;;2.70;1.95;;;;;;;10.57;78.81;95207.66;5015631;28;20026;-53
2021/04/30 10:05:12;;;;;;;6.00;2.30;;;;;;;10.24;78.93;95202.13;5010337;28;20058;-53
2021/04/30 10:07:40;;;;;;;1.38;1.38;;;;;;;10.10;78.59;95203.50;5007485;28;20041;-52
2021/04/30 10:10:17;;;;;;;2.50;2.40;;;;;;;9.95;77.98;95206.66;5009827;28;20048;-53
2021/04/30 10:12:46;;;;;;;1.55;1.48;;;;;;;10.04;78.94;95218.06;5020225;28;20033;-54
2021/04/30 10:15:15;;;;;;;1.42;1.42;;;;;;;9.91;79.05;95218.44;5016339;28;20042;-52
2021/04/30 10:17:42;;;;;;;3.38;1.80;;;;;;;9.99;79.01;95218.50;5016343;28;20033;-54
2021/04/30 10:20:12;;;;;;;1.40;1.40;;;;;;;9.96;78.50;95212.75;5016088;28;20037;-54
2021/04/30 10:22:40;;;;;;;2.92;1.30;;;;;;;9.99;78.31;95210.63;5010032;28;20029;-55
2021/04/30 10:25:20;;;;;;;1.10;1.10;;;;;;;9.87;78.33;95215.28;5009477;28;20080;-55
2021/04/30 10:27:48;;;;;;;3.22;1.70;;;;;;;9.97;78.70;95209.94;5011056;28;20089;-55
2021/04/30 10:30:27;;;;;;;2.90;2.70;;;;;;;10.11;78.01;95207.78;5003872;28;20037;-59
2021/04/30 10:33:14;;;;;;;1.52;1.52;;;;;;;9.89;77.72;95212.50;5003983;28;20026;-55
2021/04/30 10:36:20;;;;;;;1.40;1.40;;;;;;;9.89;78.36;95218.59;5006650;28;20077;-53
2021/04/30 10:38:49;;;;;;;;;;;;;;;9.86;78.23;95218.88;5012888;28;20421;-54
2021/04/30 10:41:25;;;;;;;1.48;1.38;;;;;;;9.96;77.30;95215.38;5009559;28;19921;-57
2021/04/30 10:44:26;;;;;;;1.65;1.55;;;;;;;9.93;77.87;95228.81;5011199;28;20046;-52
2021/04/30 10:47:03;;;;;;;1.60;1.50;;;;;;;9.83;78.59;95223.59;5008813;28;20022;-54
2021/04/30 10:49:29;;;;;;;1.50;1.40;;;;;;;9.86;77.53;95223.34;5002038;28;20122;-58
2021/04/30 10:52:16;;;;;;;1.10;1.10;;;;;;;9.92;78.93;95224.53;5011377;28;20116;-54
2021/04/30 10:54:42;;;;;;;2.97;1.30;;;;;;;9.91;77.59;95230.75;5007150;28;20025;-57
2021/04/30 10:57:14;;;;;;;1.20;1.10;;;;;;;9.91;77.21;95231.59;5005969;28;20109;-56
2021/04/30 10:59:39;;;;;;;2.20;1.27;;;;;;;9.91;76.46;95226.34;5005835;28;20029;-55
2021/04/30 11:02:26;;;;;;;2.83;1.13;;;;;;;9.98;76.44;95223.94;5006207;28;20027;-55
2021/04/30 11:05:03;;;;;;;1.17;1.17;;;;;;;9.85;77.01;95227.75;5010569;28;20083;-55
2021/04/30 11:07:53;;;;;;;1.25;1.25;;;;;;;9.94;75.60;95231.28;5003932;28;20025;-54
2021/04/30 11:10:30;;;;;;;1.75;1.65;;;;;;;9.89;75.90;95228.28;5010725;28;20080;-50
2021/04/30 11:12:56;;;;;;;1.20;1.20;;;;;;;9.94;75.85;95233.09;5020007;28;20444;-56
2021/04/30 11:15:23;;;;;;;1.67;1.58;;;;;;;9.84;76.40;95231.34;5022456;28;20030;-53
2021/04/30 11:17:54;;;;;;;1.80;1.70;;;;;;;9.95;75.38;95232.94;5025736;28;20466;-52
2021/04/30 11:20:22;;;;;;;1.35;1.25;;;;;;;9.92;74.36;95227.16;5012660;28;20398;-54
2021/04/30 11:23:22;;;;;;;2.58;1.30;;;;;;;9.84;75.32;95230.56;5013177;28;20052;-54
2021/04/30 11:26:03;;;;;;;1.30;1.30;;;;;;;9.98;75.27;95221.31;5014691;28;20025;-53
2021/04/30 11:28:32;;;;;;;1.98;1.88;;;;;;;10.13;75.22;95218.97;5013152;28;20076;-52
2021/04/30 11:31:15;;;;;;;2.45;2.25;;;;;;;10.32;73.81;95221.44;5019040;28;20141;-53
2021/04/30 11:33:42;;;;;;;1.40;1.40;;;;;;;10.15;74.37;95222.28;5021165;28;20073;-53
2021/04/30 11:36:12;;;;;;;3.00;2.53;;;;;;;10.23;73.94;95224.97;5048104;28;20020;-50
2021/04/30 11:38:38;;;;;;;1.77;1.67;;;;;;;10.49;72.88;95223.41;5052156;28;20021;-51
2021/04/30 11:41:08;;;;;;;1.10;1.10;;;;;;;10.36;73.20;95215.88;5038990;28;20100;-53
2021/04/30 11:43:35;;;;;;;3.13;2.83;;;;;;;10.36;72.96;95213.25;5038816;28;20049;-54